createdAt,value
2018-03-28T00:01:01.797Z,0
2018-03-28T00:02:10.627Z,0
2018-03-28T00:03:19.460Z,0
2018-03-28T00:04:28.785Z,0
2018-03-28T00:05:37.617Z,0
2018-03-28T00:06:46.547Z,0
2018-03-28T00:07:55.377Z,0
2018-03-28T00:09:04.208Z,0
2018-03-28T00:10:13.593Z,0
2018-03-28T00:11:22.429Z,0
2018-03-28T00:12:31.659Z,0
2018-03-28T00:13:40.488Z,0
2018-03-28T00:14:49.324Z,0
2018-03-28T00:15:58.155Z,0
2018-03-28T00:17:06.988Z,0
2018-03-28T00:18:15.970Z,0
2018-03-28T00:19:24.800Z,0
2018-03-28T00:20:33.630Z,0
2018-03-28T00:21:42.737Z,0
2018-03-28T00:22:51.563Z,0
2018-03-28T00:24:00.692Z,0
2018-03-28T00:25:09.524Z,0
2018-03-28T00:26:18.356Z,0
2018-03-28T00:27:27.186Z,0
2018-03-28T00:28:36.018Z,0
2018-03-28T00:29:45.146Z,0
2018-03-28T00:30:54.257Z,0
2018-03-28T00:32:03.084Z,0
2018-03-28T00:33:11.917Z,0
2018-03-28T00:34:20.745Z,0
2018-03-28T00:35:29.833Z,0
2018-03-28T00:36:38.655Z,0
2018-03-28T00:37:47.488Z,0
2018-03-28T00:38:56.594Z,0
2018-03-28T00:40:05.702Z,0
2018-03-28T00:41:14.531Z,0
2018-03-28T00:42:23.423Z,0
2018-03-28T00:43:32.466Z,0
2018-03-28T00:44:41.297Z,0
2018-03-28T00:45:50.127Z,0
2018-03-28T00:46:59.532Z,0
2018-03-28T00:48:08.362Z,0
2018-03-28T00:49:17.203Z,0
2018-03-28T00:50:26.028Z,0
2018-03-28T00:51:35.138Z,0
2018-03-28T00:52:44.394Z,0
2018-03-28T00:53:53.500Z,0
2018-03-28T00:55:02.329Z,0
2018-03-28T00:56:11.158Z,0
2018-03-28T00:57:19.986Z,0
2018-03-28T00:58:28.920Z,0
2018-03-28T00:59:37.750Z,0
2018-03-28T01:00:46.582Z,0
2018-03-28T01:01:55.696Z,0
2018-03-28T01:03:04.526Z,0
2018-03-28T01:04:13.507Z,0
2018-03-28T01:05:22.336Z,0
2018-03-28T01:06:31.178Z,0
2018-03-28T01:07:39.996Z,0
2018-03-28T01:08:48.826Z,0
2018-03-28T01:09:57.956Z,0
2018-03-28T01:11:06.785Z,0
2018-03-28T01:12:15.617Z,0
2018-03-28T01:13:24.448Z,0
2018-03-28T01:14:33.278Z,0
2018-03-28T01:15:42.108Z,0
2018-03-28T01:16:50.935Z,0
2018-03-28T01:17:59.774Z,0
2018-03-28T01:19:08.939Z,0
2018-03-28T01:20:17.770Z,0
2018-03-28T01:21:26.851Z,0
2018-03-28T01:22:35.677Z,0
2018-03-28T01:23:44.507Z,0
2018-03-28T01:24:53.893Z,0
2018-03-28T01:26:02.998Z,0
2018-03-28T01:27:11.826Z,0
2018-03-28T01:28:20.655Z,0
2018-03-28T01:29:29.486Z,0
2018-03-28T01:30:38.349Z,0
2018-03-28T01:31:47.453Z,0
2018-03-28T01:32:56.385Z,0
2018-03-28T01:34:05.216Z,0
2018-03-28T01:35:14.048Z,0
2018-03-28T01:36:22.876Z,0
2018-03-28T01:37:31.705Z,0
2018-03-28T01:38:40.635Z,0
2018-03-28T01:39:49.466Z,0
2018-03-28T01:40:58.297Z,0
2018-03-28T01:42:07.126Z,0
2018-03-28T01:43:15.954Z,0
2018-03-28T01:44:24.835Z,0
2018-03-28T01:45:33.668Z,0
2018-03-28T01:46:42.496Z,0
2018-03-28T01:47:51.325Z,0
2018-03-28T01:49:00.157Z,0
2018-03-28T01:50:09.124Z,0
2018-03-28T01:51:17.920Z,0
2018-03-28T01:52:26.753Z,0
2018-03-28T01:53:35.583Z,0
2018-03-28T01:54:44.692Z,0
2018-03-28T01:55:53.576Z,0
2018-03-28T01:57:02.409Z,0
2018-03-28T01:58:11.238Z,0
2018-03-28T01:59:20.065Z,0
2018-03-28T02:00:28.897Z,0
2018-03-28T02:01:37.726Z,0
2018-03-28T02:02:46.555Z,0
2018-03-28T02:03:55.381Z,0
2018-03-28T02:05:04.219Z,0
2018-03-28T02:06:13.043Z,0
2018-03-28T02:07:21.872Z,0
2018-03-28T02:08:30.700Z,0
2018-03-28T02:09:39.529Z,0
2018-03-28T02:10:48.637Z,0
2018-03-28T02:11:57.468Z,0
2018-03-28T02:13:06.399Z,0
2018-03-28T02:14:15.227Z,0
2018-03-28T02:15:24.058Z,0
2018-03-28T02:16:32.896Z,0
2018-03-28T02:17:41.719Z,0
2018-03-28T02:18:50.653Z,0
2018-03-28T02:19:59.482Z,0
2018-03-28T02:21:08.309Z,0
2018-03-28T02:22:17.139Z,0
2018-03-28T02:23:25.969Z,0
2018-03-28T02:24:34.804Z,0
2018-03-28T02:25:43.636Z,0
2018-03-28T02:26:52.466Z,0
2018-03-28T02:28:01.296Z,0
2018-03-28T02:29:10.176Z,0
2018-03-28T02:30:19.107Z,0
2018-03-28T02:31:27.937Z,0
2018-03-28T02:32:36.768Z,0
2018-03-28T02:33:45.879Z,0
2018-03-28T02:34:54.712Z,0
2018-03-28T02:36:03.942Z,0
2018-03-28T02:37:13.055Z,0
2018-03-28T02:38:22.162Z,0
2018-03-28T02:39:30.992Z,0
2018-03-28T02:40:39.826Z,0
2018-03-28T02:41:48.720Z,0
2018-03-28T02:42:57.537Z,0
2018-03-28T02:44:06.935Z,0
2018-03-28T02:45:15.765Z,0
2018-03-28T02:46:24.877Z,0
2018-03-28T02:47:33.705Z,0
2018-03-28T02:48:42.537Z,0
2018-03-28T02:49:51.368Z,0
2018-03-28T02:51:00.204Z,0
2018-03-28T02:52:09.323Z,0
2018-03-28T02:53:18.532Z,0
2018-03-28T02:54:27.365Z,0
2018-03-28T02:55:36.194Z,0
2018-03-28T02:56:45.026Z,0
2018-03-28T02:57:54.134Z,0
2018-03-28T02:59:02.966Z,0
2018-03-28T03:00:11.797Z,0
2018-03-28T03:01:20.625Z,0
2018-03-28T03:02:29.758Z,0
2018-03-28T03:03:38.590Z,0
2018-03-28T03:04:47.421Z,0
2018-03-28T03:05:56.252Z,0
2018-03-28T03:07:05.079Z,0
2018-03-28T03:08:14.186Z,0
2018-03-28T03:09:23.014Z,0
2018-03-28T03:10:31.945Z,0
2018-03-28T03:11:41.053Z,0
2018-03-28T03:12:49.885Z,0
2018-03-28T03:13:58.993Z,0
2018-03-28T03:15:07.824Z,0
2018-03-28T03:16:16.751Z,0
2018-03-28T03:17:25.870Z,0
2018-03-28T03:18:34.687Z,0
2018-03-28T03:19:43.520Z,0
2018-03-28T03:20:52.349Z,0
2018-03-28T03:22:01.579Z,0
2018-03-28T03:23:10.516Z,0
2018-03-28T03:24:19.629Z,0
2018-03-28T03:25:28.459Z,0
2018-03-28T03:26:37.563Z,0
2018-03-28T03:27:46.391Z,0
2018-03-28T03:28:55.230Z,0
2018-03-28T03:30:04.061Z,0
2018-03-28T03:31:12.892Z,0
2018-03-28T03:32:21.999Z,0
2018-03-28T03:33:30.880Z,0
2018-03-28T03:34:39.709Z,0
2018-03-28T03:35:48.826Z,0
2018-03-28T03:36:58.031Z,0
2018-03-28T03:38:06.781Z,0
2018-03-28T03:39:15.658Z,0
2018-03-28T03:40:24.488Z,0
2018-03-28T03:41:33.318Z,0
2018-03-28T03:42:42.150Z,0
2018-03-28T03:43:50.977Z,0
2018-03-28T03:44:59.858Z,0
2018-03-28T03:46:08.967Z,0
2018-03-28T03:47:17.797Z,0
2018-03-28T03:48:26.634Z,0
2018-03-28T03:49:35.467Z,0
2018-03-28T03:50:44.500Z,0
2018-03-28T03:51:53.329Z,0
2018-03-28T03:53:02.158Z,0
2018-03-28T03:54:10.990Z,0
2018-03-28T03:55:20.094Z,0
2018-03-28T03:56:29.074Z,0
2018-03-28T03:57:37.907Z,0
2018-03-28T03:58:46.800Z,0
2018-03-28T03:59:55.567Z,0
2018-03-28T04:01:04.682Z,0
2018-03-28T04:02:13.888Z,0
2018-03-28T04:03:22.720Z,0
2018-03-28T04:04:31.551Z,0
2018-03-28T04:05:40.383Z,0
2018-03-28T04:06:49.211Z,0
2018-03-28T04:07:58.292Z,0
2018-03-28T04:09:07.121Z,0
2018-03-28T04:10:15.950Z,0
2018-03-28T04:11:24.784Z,0
2018-03-28T04:12:33.613Z,0
2018-03-28T04:13:42.544Z,0
2018-03-28T04:14:51.383Z,0
2018-03-28T04:16:00.488Z,0
2018-03-28T04:17:09.597Z,0
2018-03-28T04:18:18.429Z,0
2018-03-28T04:19:27.259Z,0
2018-03-28T04:20:36.089Z,0
2018-03-28T04:21:44.921Z,0
2018-03-28T04:22:54.036Z,0
2018-03-28T04:24:02.861Z,0
2018-03-28T04:25:11.792Z,0
2018-03-28T04:26:20.622Z,0
2018-03-28T04:27:29.449Z,0
2018-03-28T04:28:38.282Z,0
2018-03-28T04:29:47.113Z,0
2018-03-28T04:30:55.946Z,0
2018-03-28T04:32:04.782Z,0
2018-03-28T04:33:13.611Z,0
2018-03-28T04:34:22.434Z,0
2018-03-28T04:35:31.546Z,0
2018-03-28T04:36:40.638Z,0
2018-03-28T04:37:49.466Z,0
2018-03-28T04:38:58.294Z,0
2018-03-28T04:40:07.123Z,0
2018-03-28T04:41:15.951Z,0
2018-03-28T04:42:25.183Z,0
2018-03-28T04:43:34.013Z,0
2018-03-28T04:44:42.843Z,0
2018-03-28T04:45:51.672Z,0
2018-03-28T04:47:00.505Z,0
2018-03-28T04:48:09.736Z,0
2018-03-28T04:49:18.845Z,0
2018-03-28T04:50:27.952Z,0
2018-03-28T04:51:36.784Z,4
2018-03-28T04:52:45.617Z,4
2018-03-28T04:53:54.544Z,0
2018-03-28T04:55:03.373Z,4
2018-03-28T04:56:12.204Z,4
2018-03-28T04:57:21.033Z,4
2018-03-28T04:58:29.864Z,4
2018-03-28T04:59:38.996Z,8
2018-03-28T05:00:47.825Z,8
2018-03-28T05:01:56.657Z,8
2018-03-28T05:03:05.488Z,12
2018-03-28T05:04:14.638Z,12
2018-03-28T05:05:23.726Z,12
2018-03-28T05:06:32.557Z,16
2018-03-28T05:07:41.662Z,12
2018-03-28T05:08:50.493Z,16
2018-03-28T05:09:59.323Z,20
2018-03-28T05:11:08.529Z,20
2018-03-28T05:12:17.359Z,20
2018-03-28T05:13:26.193Z,20
2018-03-28T05:14:35.022Z,20
2018-03-28T05:15:43.950Z,24
2018-03-28T05:16:52.683Z,24
2018-03-28T05:18:01.514Z,28
2018-03-28T05:19:10.344Z,28
2018-03-28T05:20:19.446Z,36
2018-03-28T05:21:28.278Z,36
2018-03-28T05:22:37.266Z,44
2018-03-28T05:23:46.041Z,44
2018-03-28T05:24:54.869Z,48
2018-03-28T05:26:03.697Z,56
2018-03-28T05:27:12.531Z,60
2018-03-28T05:28:21.511Z,60
2018-03-28T05:29:30.338Z,64
2018-03-28T05:30:39.167Z,68
2018-03-28T05:31:47.998Z,80
2018-03-28T05:32:56.827Z,88
2018-03-28T05:34:05.658Z,100
2018-03-28T05:35:14.488Z,108
2018-03-28T05:36:23.315Z,116
2018-03-28T05:37:32.145Z,124
2018-03-28T05:38:40.977Z,140
2018-03-28T05:39:49.956Z,148
2018-03-28T05:40:58.785Z,140
2018-03-28T05:42:07.617Z,140
2018-03-28T05:43:16.447Z,148
2018-03-28T05:44:25.577Z,152
2018-03-28T05:45:34.683Z,140
2018-03-28T05:46:43.518Z,156
2018-03-28T05:47:52.348Z,172
2018-03-28T05:49:01.178Z,192
2018-03-28T05:50:10.005Z,220
2018-03-28T05:51:19.235Z,228
2018-03-28T05:52:28.342Z,224
2018-03-28T05:53:37.176Z,228
2018-03-28T05:54:46.011Z,216
2018-03-28T05:55:54.842Z,228
2018-03-28T05:57:03.721Z,236
2018-03-28T05:58:12.550Z,244
2018-03-28T05:59:21.378Z,228
2018-03-28T06:00:30.495Z,216
2018-03-28T06:01:39.321Z,220
2018-03-28T06:02:48.203Z,240
2018-03-28T06:03:57.032Z,248
2018-03-28T06:05:05.882Z,260
2018-03-28T06:06:14.693Z,272
2018-03-28T06:07:23.867Z,284
2018-03-28T06:08:32.771Z,312
2018-03-28T06:09:41.603Z,316
2018-03-28T06:10:50.714Z,328
2018-03-28T06:11:59.546Z,372
2018-03-28T06:13:08.379Z,360
2018-03-28T06:14:17.262Z,332
2018-03-28T06:15:26.094Z,332
2018-03-28T06:16:34.927Z,328
2018-03-28T06:17:43.755Z,304
2018-03-28T06:18:52.588Z,272
2018-03-28T06:20:01.468Z,268
2018-03-28T06:21:10.852Z,260
2018-03-28T06:22:19.681Z,260
2018-03-28T06:23:28.803Z,296
2018-03-28T06:24:37.627Z,292
2018-03-28T06:25:46.760Z,328
2018-03-28T06:26:55.587Z,360
2018-03-28T06:28:04.693Z,452
2018-03-28T06:29:13.573Z,488
2018-03-28T06:30:22.959Z,532
2018-03-28T06:31:31.940Z,516
2018-03-28T06:32:40.770Z,532
2018-03-28T06:33:49.604Z,536
2018-03-28T06:34:58.435Z,524
2018-03-28T06:36:07.265Z,416
2018-03-28T06:37:16.344Z,396
2018-03-28T06:38:25.175Z,380
2018-03-28T06:39:34.007Z,428
2018-03-28T06:40:42.846Z,424
2018-03-28T06:41:51.665Z,416
2018-03-28T06:43:00.653Z,376
2018-03-28T06:44:09.756Z,468
2018-03-28T06:45:18.861Z,436
2018-03-28T06:46:27.691Z,448
2018-03-28T06:47:36.523Z,404
2018-03-28T06:48:45.404Z,408
2018-03-28T06:49:54.233Z,384
2018-03-28T06:51:03.342Z,364
2018-03-28T06:52:12.168Z,364
2018-03-28T06:53:21.280Z,308
2018-03-28T06:54:30.361Z,336
2018-03-28T06:55:39.192Z,340
2018-03-28T06:56:48.300Z,316
2018-03-28T06:57:57.405Z,348
2018-03-28T06:59:06.236Z,408
2018-03-28T07:00:15.441Z,432
2018-03-28T07:01:24.271Z,492
2018-03-28T07:02:33.100Z,588
2018-03-28T07:03:41.930Z,668
2018-03-28T07:04:50.762Z,756
2018-03-28T07:05:59.593Z,740
2018-03-28T07:07:08.428Z,664
2018-03-28T07:08:17.259Z,600
2018-03-28T07:09:26.090Z,604
2018-03-28T07:10:34.921Z,516
2018-03-28T07:11:43.900Z,480
2018-03-28T07:12:52.730Z,472
2018-03-28T07:14:01.561Z,600
2018-03-28T07:15:10.391Z,736
2018-03-28T07:16:19.223Z,692
2018-03-28T07:17:28.329Z,832
2018-03-28T07:18:37.159Z,876
2018-03-28T07:19:46.264Z,984
2018-03-28T07:20:55.095Z,924
2018-03-28T07:22:03.923Z,896
2018-03-28T07:23:12.902Z,924
2018-03-28T07:24:21.730Z,904
2018-03-28T07:25:30.562Z,840
2018-03-28T07:26:39.394Z,924
2018-03-28T07:27:48.272Z,916
2018-03-28T07:28:57.252Z,932
2018-03-28T07:30:06.083Z,912
2018-03-28T07:31:14.915Z,768
2018-03-28T07:32:23.749Z,700
2018-03-28T07:33:32.854Z,588
2018-03-28T07:34:42.058Z,576
2018-03-28T07:35:50.888Z,544
2018-03-28T07:36:59.719Z,572
2018-03-28T07:38:08.828Z,608
2018-03-28T07:39:17.659Z,636
2018-03-28T07:40:26.961Z,624
2018-03-28T07:41:35.757Z,532
2018-03-28T07:42:44.585Z,600
2018-03-28T07:43:53.415Z,572
2018-03-28T07:45:02.246Z,612
2018-03-28T07:46:11.323Z,760
2018-03-28T07:47:20.431Z,824
2018-03-28T07:48:29.260Z,876
2018-03-28T07:49:38.089Z,844
2018-03-28T07:50:46.923Z,832
2018-03-28T07:51:55.900Z,816
2018-03-28T07:53:05.005Z,756
2018-03-28T07:54:13.834Z,768
2018-03-28T07:55:22.664Z,708
2018-03-28T07:56:31.770Z,728
2018-03-28T07:57:40.700Z,820
2018-03-28T07:58:49.533Z,788
2018-03-28T07:59:58.365Z,788
2018-03-28T08:01:07.195Z,788
2018-03-28T08:02:16.025Z,828
2018-03-28T08:03:25.004Z,976
2018-03-28T08:04:33.842Z,988
2018-03-28T08:05:42.666Z,1156
2018-03-28T08:06:51.772Z,1200
2018-03-28T08:08:00.601Z,1436
2018-03-28T08:09:09.680Z,1488
2018-03-28T08:10:18.512Z,1476
2018-03-28T08:11:27.342Z,1508
2018-03-28T08:12:36.169Z,1556
2018-03-28T08:13:44.998Z,1420
2018-03-28T08:14:54.408Z,1400
2018-03-28T08:16:03.237Z,1240
2018-03-28T08:17:12.345Z,1088
2018-03-28T08:18:21.177Z,1080
2018-03-28T08:19:30.007Z,1004
2018-03-28T08:20:38.887Z,1028
2018-03-28T08:21:47.716Z,1092
2018-03-28T08:22:56.551Z,1008
2018-03-28T08:24:05.659Z,1052
2018-03-28T08:25:14.769Z,1016
2018-03-28T08:26:23.984Z,940
2018-03-28T08:27:33.092Z,988
2018-03-28T08:28:42.204Z,948
2018-03-28T08:29:51.033Z,972
2018-03-28T08:30:59.863Z,1112
2018-03-28T08:32:08.693Z,1168
2018-03-28T08:33:17.804Z,1116
2018-03-28T08:34:26.635Z,1092
2018-03-28T08:35:35.466Z,1084
2018-03-28T08:36:44.294Z,972
2018-03-28T08:37:53.427Z,968
2018-03-28T08:39:02.256Z,932
2018-03-28T08:40:11.087Z,996
2018-03-28T08:41:19.918Z,1188
2018-03-28T08:42:28.746Z,1452
2018-03-28T08:43:38.001Z,1628
2018-03-28T08:44:47.120Z,1716
2018-03-28T08:45:56.213Z,1720
2018-03-28T08:47:05.319Z,1560
2018-03-28T08:48:14.151Z,1560
2018-03-28T08:49:23.034Z,1572
2018-03-28T08:50:31.865Z,1748
2018-03-28T08:51:40.693Z,1756
2018-03-28T08:52:49.522Z,1904
2018-03-28T08:53:58.350Z,1696
2018-03-28T08:55:07.235Z,1976
2018-03-28T08:56:16.066Z,1640
2018-03-28T08:57:24.895Z,1888
2018-03-28T08:58:33.723Z,1796
2018-03-28T08:59:42.553Z,1868
2018-03-28T09:00:51.487Z,1932
2018-03-28T09:02:00.318Z,1936
2018-03-28T09:03:09.146Z,2144
2018-03-28T09:04:17.977Z,1896
2018-03-28T09:05:26.812Z,1904
2018-03-28T09:06:36.240Z,2392
2018-03-28T09:07:45.355Z,2332
2018-03-28T09:08:54.182Z,2196
2018-03-28T09:10:03.012Z,2148
2018-03-28T09:11:11.840Z,2108
2018-03-28T09:12:21.055Z,2052
2018-03-28T09:13:29.883Z,2032
2018-03-28T09:14:38.713Z,1852
2018-03-28T09:15:47.543Z,1984
2018-03-28T09:16:56.648Z,2480
2018-03-28T09:18:06.012Z,2304
2018-03-28T09:19:14.878Z,2224
2018-03-28T09:20:23.986Z,2420
2018-03-28T09:21:32.818Z,2560
2018-03-28T09:22:41.651Z,2528
2018-03-28T09:23:50.533Z,2644
2018-03-28T09:24:59.365Z,2492
2018-03-28T09:26:08.608Z,2496
2018-03-28T09:27:17.338Z,2396
2018-03-28T09:28:26.450Z,2420
2018-03-28T09:29:35.954Z,2120
2018-03-28T09:30:44.783Z,2556
2018-03-28T09:31:53.613Z,2276
2018-03-28T09:33:02.449Z,2396
2018-03-28T09:34:11.282Z,2312
2018-03-28T09:35:20.410Z,2288
2018-03-28T09:36:29.235Z,2188
2018-03-28T09:37:38.066Z,2100
2018-03-28T09:38:46.898Z,2276
2018-03-28T09:39:55.727Z,2228
2018-03-28T09:41:04.861Z,1968
2018-03-28T09:42:13.700Z,1928
2018-03-28T09:43:22.521Z,1768
2018-03-28T09:44:31.354Z,1800
2018-03-28T09:45:40.183Z,1752
2018-03-28T09:46:49.682Z,1676
2018-03-28T09:47:58.512Z,1636
2018-03-28T09:49:07.339Z,1596
2018-03-28T09:50:16.171Z,1676
2018-03-28T09:51:25.003Z,1696
2018-03-28T09:52:34.160Z,1580
2018-03-28T09:53:42.994Z,1568
2018-03-28T09:54:51.829Z,1584
2018-03-28T09:56:00.959Z,1632
2018-03-28T09:57:09.762Z,1588
2018-03-28T09:58:18.646Z,1636
2018-03-28T09:59:27.475Z,1640
2018-03-28T10:00:36.307Z,1756
2018-03-28T10:01:45.140Z,1544
2018-03-28T10:02:54.240Z,1532
2018-03-28T10:04:03.172Z,1416
2018-03-28T10:05:12.002Z,1772
2018-03-28T10:06:20.833Z,1756
2018-03-28T10:07:29.665Z,1764
2018-03-28T10:08:38.507Z,1676
2018-03-28T10:09:47.374Z,1800
2018-03-28T10:10:56.207Z,1832
2018-03-28T10:12:05.037Z,2092
2018-03-28T10:13:13.866Z,2044
2018-03-28T10:14:22.694Z,2212
2018-03-28T10:15:31.574Z,2440
2018-03-28T10:16:40.405Z,2540
2018-03-28T10:17:49.514Z,2820
2018-03-28T10:18:58.628Z,2936
2018-03-28T10:20:07.735Z,2720
2018-03-28T10:21:16.665Z,3180
2018-03-28T10:22:25.769Z,3372
2018-03-28T10:23:34.601Z,3184
2018-03-28T10:24:43.432Z,3700
2018-03-28T10:25:52.264Z,3628
2018-03-28T10:27:01.346Z,3796
2018-03-28T10:28:10.175Z,3892
2018-03-28T10:29:19.005Z,4152
2018-03-28T10:30:27.836Z,4024
2018-03-28T10:31:36.667Z,3768
2018-03-28T10:32:45.604Z,3640
2018-03-28T10:33:54.430Z,3348
2018-03-28T10:35:03.260Z,3480
2018-03-28T10:36:12.091Z,3460
2018-03-28T10:37:20.924Z,3720
2018-03-28T10:38:29.904Z,3672
2018-03-28T10:39:38.736Z,3304
2018-03-28T10:40:47.567Z,3900
2018-03-28T10:41:56.396Z,3300
2018-03-28T10:43:05.226Z,3412
2018-03-28T10:44:14.159Z,3368
2018-03-28T10:45:23.542Z,3844
2018-03-28T10:46:32.374Z,3480
2018-03-28T10:47:41.481Z,4448
2018-03-28T10:48:50.311Z,3772
2018-03-28T10:49:59.243Z,3944
2018-03-28T10:51:08.351Z,4156
2018-03-28T10:52:17.184Z,3248
2018-03-28T10:53:26.016Z,2696
2018-03-28T10:54:34.844Z,2632
2018-03-28T10:55:43.723Z,2952
2018-03-28T10:56:52.555Z,2892
2018-03-28T10:58:01.384Z,3260
2018-03-28T10:59:10.216Z,3536
2018-03-28T11:00:19.047Z,3788
2018-03-28T11:01:27.923Z,3208
2018-03-28T11:02:37.045Z,3592
2018-03-28T11:03:45.879Z,3420
2018-03-28T11:04:54.710Z,2720
2018-03-28T11:06:03.826Z,2296
2018-03-28T11:07:13.031Z,2996
2018-03-28T11:08:21.859Z,2880
2018-03-28T11:09:30.967Z,3364
2018-03-28T11:10:39.795Z,3456
2018-03-28T11:11:48.624Z,3376
2018-03-28T11:12:57.506Z,3400
2018-03-28T11:14:06.334Z,3852
2018-03-28T11:15:15.170Z,3648
2018-03-28T11:16:23.998Z,3980
2018-03-28T11:17:32.875Z,3396
2018-03-28T11:18:41.716Z,3704
2018-03-28T11:19:50.543Z,3128
2018-03-28T11:20:59.376Z,2992
2018-03-28T11:22:08.207Z,3184
2018-03-28T11:23:17.035Z,3096
2018-03-28T11:24:26.068Z,2520
2018-03-28T11:25:34.899Z,2272
2018-03-28T11:26:43.730Z,2428
2018-03-28T11:27:53.122Z,2752
2018-03-28T11:29:02.505Z,2924
2018-03-28T11:30:11.337Z,3300
2018-03-28T11:31:20.172Z,2704
2018-03-28T11:32:29.278Z,2368
2018-03-28T11:33:38.108Z,2164
2018-03-28T11:34:47.214Z,2488
2018-03-28T11:35:56.046Z,2388
2018-03-28T11:37:05.431Z,2488
2018-03-28T11:38:14.255Z,2404
2018-03-28T11:39:23.089Z,2480
2018-03-28T11:40:31.914Z,2244
2018-03-28T11:41:40.902Z,2532
2018-03-28T11:42:49.729Z,2364
2018-03-28T11:43:58.557Z,2288
2018-03-28T11:45:07.387Z,2304
2018-03-28T11:46:16.220Z,2440
2018-03-28T11:47:25.625Z,2072
2018-03-28T11:48:34.456Z,2244
2018-03-28T11:49:43.847Z,2100
2018-03-28T11:50:52.677Z,2052
2018-03-28T11:52:01.504Z,1924
2018-03-28T11:53:10.869Z,2084
2018-03-28T11:54:19.968Z,2020
2018-03-28T11:55:28.799Z,2368
2018-03-28T11:56:37.631Z,2576
2018-03-28T11:57:46.459Z,2676
2018-03-28T11:58:55.591Z,2456
2018-03-28T12:00:04.700Z,2540
2018-03-28T12:01:13.532Z,2988
2018-03-28T12:02:22.365Z,2920
2018-03-28T12:03:31.479Z,2752
2018-03-28T12:04:40.425Z,2816
2018-03-28T12:05:49.240Z,3056
2018-03-28T12:06:58.071Z,2664
2018-03-28T12:08:06.904Z,2304
2018-03-28T12:09:15.733Z,2280
2018-03-28T12:10:24.843Z,2396
2018-03-28T12:11:33.679Z,2184
2018-03-28T12:12:42.509Z,1932
2018-03-28T12:13:51.339Z,1972
2018-03-28T12:15:00.170Z,1916
2018-03-28T12:16:09.149Z,1844
2018-03-28T12:17:17.978Z,1880
2018-03-28T12:18:26.809Z,1844
2018-03-28T12:19:35.639Z,1960
2018-03-28T12:20:44.466Z,1820
2018-03-28T12:21:53.349Z,2040
2018-03-28T12:23:02.179Z,2036
2018-03-28T12:24:11.011Z,2296
2018-03-28T12:25:19.844Z,2268
2018-03-28T12:26:28.675Z,2408
2018-03-28T12:27:37.553Z,2212
2018-03-28T12:28:46.659Z,2232
2018-03-28T12:29:55.499Z,2376
2018-03-28T12:31:04.607Z,2040
2018-03-28T12:32:13.436Z,1624
2018-03-28T12:33:22.641Z,1720
2018-03-28T12:34:31.471Z,1532
2018-03-28T12:35:40.299Z,1780
2018-03-28T12:36:49.153Z,1364
2018-03-28T12:37:57.963Z,1084
2018-03-28T12:39:06.940Z,1212
2018-03-28T12:40:15.771Z,1400
2018-03-28T12:41:24.601Z,1316
2018-03-28T12:42:33.708Z,1448
2018-03-28T12:43:42.536Z,1236
2018-03-28T12:44:51.683Z,1108
2018-03-28T12:46:00.514Z,1312
2018-03-28T12:47:09.345Z,1252
2018-03-28T12:48:18.212Z,1108
2018-03-28T12:49:27.317Z,1292
2018-03-28T12:50:36.296Z,1284
2018-03-28T12:51:45.127Z,1308
2018-03-28T12:52:53.960Z,1308
2018-03-28T12:54:02.833Z,1444
2018-03-28T12:55:11.609Z,1448
2018-03-28T12:56:20.490Z,1304
2018-03-28T12:57:29.321Z,1200
2018-03-28T12:58:38.152Z,1060
2018-03-28T12:59:47.316Z,1016
2018-03-28T13:00:56.116Z,1228
2018-03-28T13:02:05.005Z,1128
2018-03-28T13:03:13.832Z,1220
2018-03-28T13:04:22.664Z,1160
2018-03-28T13:05:31.494Z,1196
2018-03-28T13:06:40.320Z,1316
2018-03-28T13:07:49.501Z,1144
2018-03-28T13:08:58.282Z,1220
2018-03-28T13:10:07.264Z,1256
2018-03-28T13:11:16.040Z,1364
2018-03-28T13:12:24.875Z,1480
2018-03-28T13:13:34.104Z,1436
2018-03-28T13:14:43.212Z,1460
2018-03-28T13:15:52.316Z,1484
2018-03-28T13:17:01.143Z,1324
2018-03-28T13:18:09.974Z,1452
2018-03-28T13:19:18.903Z,1304
2018-03-28T13:20:27.731Z,1260
2018-03-28T13:21:36.562Z,1280
2018-03-28T13:22:45.395Z,1120
2018-03-28T13:23:54.224Z,1308
2018-03-28T13:25:03.057Z,1168
2018-03-28T13:26:11.883Z,1580
2018-03-28T13:27:20.711Z,1380
2018-03-28T13:28:29.553Z,1628
2018-03-28T13:29:38.375Z,1596
2018-03-28T13:30:47.305Z,1948
2018-03-28T13:31:56.133Z,1760
2018-03-28T13:33:04.963Z,1768
2018-03-28T13:34:13.792Z,2020
2018-03-28T13:35:22.629Z,2004
2018-03-28T13:36:31.783Z,1964
2018-03-28T13:37:40.618Z,1760
2018-03-28T13:38:49.447Z,1644
2018-03-28T13:39:58.280Z,1584
2018-03-28T13:41:07.115Z,1664
2018-03-28T13:42:16.044Z,1480
2018-03-28T13:43:24.882Z,1472
2018-03-28T13:44:33.708Z,1204
2018-03-28T13:45:42.535Z,1404
2018-03-28T13:46:51.365Z,1332
2018-03-28T13:48:00.444Z,1360
2018-03-28T13:49:09.275Z,1260
2018-03-28T13:50:18.104Z,1312
2018-03-28T13:51:26.932Z,1380
2018-03-28T13:52:35.764Z,1352
2018-03-28T13:53:44.741Z,1456
2018-03-28T13:54:53.570Z,1480
2018-03-28T13:56:02.684Z,1532
2018-03-28T13:57:11.511Z,1408
2018-03-28T13:58:20.618Z,1384
2018-03-28T13:59:29.495Z,1644
2018-03-28T14:00:38.609Z,1464
2018-03-28T14:01:47.718Z,1412
2018-03-28T14:02:56.546Z,1772
2018-03-28T14:04:05.376Z,1852
2018-03-28T14:05:14.257Z,1764
2018-03-28T14:06:23.091Z,1724
2018-03-28T14:07:31.921Z,1820
2018-03-28T14:08:40.761Z,1704
2018-03-28T14:09:49.588Z,1628
2018-03-28T14:10:58.570Z,1668
2018-03-28T14:12:07.401Z,1632
2018-03-28T14:13:16.232Z,1748
2018-03-28T14:14:25.062Z,1616
2018-03-28T14:15:33.889Z,1700
2018-03-28T14:16:42.919Z,1684
2018-03-28T14:17:51.750Z,1804
2018-03-28T14:19:00.579Z,1864
2018-03-28T14:20:09.411Z,1896
2018-03-28T14:21:18.521Z,2132
2018-03-28T14:22:27.688Z,2000
2018-03-28T14:23:36.519Z,1720
2018-03-28T14:24:45.350Z,1628
2018-03-28T14:25:54.176Z,1484
2018-03-28T14:27:03.282Z,1440
2018-03-28T14:28:12.163Z,1248
2018-03-28T14:29:20.994Z,1484
2018-03-28T14:30:30.165Z,1240
2018-03-28T14:31:38.984Z,1276
2018-03-28T14:32:47.814Z,1272
2018-03-28T14:33:56.705Z,1180
2018-03-28T14:35:05.811Z,1372
2018-03-28T14:36:14.641Z,1912
2018-03-28T14:37:23.477Z,2100
2018-03-28T14:38:32.304Z,1680
2018-03-28T14:39:41.285Z,1876
2018-03-28T14:40:50.111Z,1524
2018-03-28T14:41:58.938Z,1408
2018-03-28T14:43:07.767Z,1416
2018-03-28T14:44:16.598Z,1176
2018-03-28T14:45:25.531Z,1168
2018-03-28T14:46:34.360Z,1144
2018-03-28T14:47:43.193Z,1140
2018-03-28T14:48:52.021Z,1224
2018-03-28T14:50:01.127Z,1180
2018-03-28T14:51:10.106Z,1008
2018-03-28T14:52:18.937Z,1376
2018-03-28T14:53:27.767Z,1400
2018-03-28T14:54:36.593Z,1316
2018-03-28T14:55:45.423Z,1256
2018-03-28T14:56:54.404Z,1344
2018-03-28T14:58:03.513Z,1428
2018-03-28T14:59:12.343Z,1552
2018-03-28T15:00:21.171Z,1260
2018-03-28T15:01:30.001Z,1336
2018-03-28T15:02:38.983Z,1312
2018-03-28T15:03:48.090Z,1108
2018-03-28T15:04:57.196Z,1144
2018-03-28T15:06:06.026Z,988
2018-03-28T15:07:14.855Z,1072
2018-03-28T15:08:23.834Z,1084
2018-03-28T15:09:32.664Z,960
2018-03-28T15:10:41.494Z,1028
2018-03-28T15:11:50.333Z,1060
2018-03-28T15:12:59.152Z,1100
2018-03-28T15:14:08.031Z,1220
2018-03-28T15:15:16.860Z,1396
2018-03-28T15:16:25.693Z,1040
2018-03-28T15:17:34.518Z,1052
2018-03-28T15:18:43.349Z,1116
2018-03-28T15:19:52.277Z,1176
2018-03-28T15:21:01.387Z,1268
2018-03-28T15:22:10.217Z,1608
2018-03-28T15:23:19.044Z,1472
2018-03-28T15:24:27.873Z,1472
2018-03-28T15:25:36.954Z,1264
2018-03-28T15:26:45.785Z,1332
2018-03-28T15:27:54.616Z,1244
2018-03-28T15:29:03.446Z,1072
2018-03-28T15:30:12.328Z,1088
2018-03-28T15:31:21.257Z,1128
2018-03-28T15:32:30.085Z,1132
2018-03-28T15:33:38.913Z,1156
2018-03-28T15:34:47.742Z,1004
2018-03-28T15:35:56.570Z,1044
2018-03-28T15:37:05.548Z,1044
2018-03-28T15:38:14.380Z,1028
2018-03-28T15:39:23.218Z,1068
2018-03-28T15:40:32.045Z,928
2018-03-28T15:41:41.154Z,908
2018-03-28T15:42:50.303Z,780
2018-03-28T15:43:59.111Z,708
2018-03-28T15:45:08.229Z,716
2018-03-28T15:46:17.057Z,728
2018-03-28T15:47:25.886Z,908
2018-03-28T15:48:34.818Z,676
2018-03-28T15:49:43.648Z,792
2018-03-28T15:50:52.752Z,676
2018-03-28T15:52:01.579Z,684
2018-03-28T15:53:10.410Z,548
2018-03-28T15:54:19.340Z,572
2018-03-28T15:55:28.174Z,472